Rhodes, Greece
Current Conditions -  °F | °C
As of 6:50 AM on Tuesday 21 Oct 2014 (Local Time) from LTBS Reporting Station
Clear Clear  
Wind Chill: 10°   Ceiling: Unl
Heat Index: 10°   Visibility: 6mi
Dew Point:   Wind: 7mph
Humidity: 54%   Direction: 50°NE
Pressure: 29.94"   Gusts: NA
Location:  36.43°N, 28.22°E
Report Text: LTBS 210350Z 05006KT 030V090 CAVOK 10/01 Q1014 NOSIG
Loading
Personal Weather Stations






























Interactive Weather Map
Tropical Storm Tracking
New forecast layout! Learn more

10-Day Weather Forecast

Advertisements
Track Severe Weather on mobile